This is the latest recevied weather packets stored in our database for station/object KVDF. If no packets are shown the sender has not sent any weather packets the latest 1 day(s).
| Time | Temp. | Humidity | Pressure | Rain* | Wind** | Luminosity | Snow |
|---|---|---|---|---|---|---|---|
| 1778110423 | 30° C | 62% | 1014.9 hPa | - | - | - | - |
| 1778106823 | 30.56° C | 58% | 1014.9 hPa | - | - | - | - |
| 1778105623 | 31.67° C | 55% | 1014.9 hPa | - | - | - | - |
| 1778104427 | 31.67° C | 49% | 1014.9 hPa | - | - | - | - |
| 1778102619 | 32.78° C | 46% | 1014.9 hPa | - | - | - | - |
| 1778102021 | 32.78° C | 46% | 1014.9 hPa | - | - | - | - |
| 1778101425 | 32.78° C | 46% | 1014.9 hPa | - | - | - | - |
| 1778100221 | 32.78° C | 46% | 1014.9 hPa | - | - | - | - |
| 1778098420 | 33.89° C | 44% | 1014.9 hPa | - | - | - | - |
| 1778096622 | 32.78° C | 46% | 1014.9 hPa | - | - | - | - |
| 1778096021 | 32.78° C | 46% | 1015.2 hPa | - | - | - | - |
| 1778092426 | 32.78° C | 43% | 1015.9 hPa | - | - | - | - |
| 1778091825 | 32.78° C | 43% | 1015.9 hPa | - | - | - | - |
| 1778090746 | 32.78° C | 41% | 1016.3 hPa | - | - | - | - |
| 1778090021 | 31.67° C | 43% | 1016.6 hPa | - | - | - | - |
| 1778086427 | 30.56° C | 48% | 1016.9 hPa | - | - | - | - |
| 1778085823 | 30.56° C | 48% | 1016.9 hPa | - | - | - | - |
| 1778085225 | 30.56° C | 48% | 1017.3 hPa | - | - | - | - |
| 1778084624 | 30.56° C | 48% | 1017.3 hPa | - | - | - | - |
| 1778080423 | 28.89° C | 58% | 1017.3 hPa | - | - | - | - |
| 1778079222 | 27.78° C | 61% | 1017.3 hPa | - | - | - | - |
| 1778078023 | 26.67° C | 65% | 1017.3 hPa | - | - | - | - |
| 1778076221 | 26.67° C | 69% | 1017.3 hPa | - | - | - | - |
| 1778075020 | 25.56° C | 74% | 1017.3 hPa | - | - | - | - |
| 1778074418 | 25° C | 78% | 1016.9 hPa | - | - | - | - |
* Rain since midnight (hover to see other rain measurements)
** Current wind speed in m/s (hover to see current wind gust speed)